createdAt,value
2022-11-09T00:00:29.504Z,945.6
2022-11-09T00:01:35.684Z,945.6
2022-11-09T00:02:41.853Z,945.6
2022-11-09T00:03:48.022Z,945.6
2022-11-09T00:04:53.192Z,945.6
2022-11-09T00:05:59.366Z,945.6
2022-11-09T00:07:05.548Z,945.6
2022-11-09T00:08:11.709Z,945.6
2022-11-09T00:09:17.873Z,945.6
2022-11-09T00:10:24.037Z,945.5
2022-11-09T00:11:30.234Z,945.5
2022-11-09T00:12:36.373Z,945.5
2022-11-09T00:13:42.559Z,945.6
2022-11-09T00:14:48.736Z,945.6
2022-11-09T00:15:54.877Z,945.5
2022-11-09T00:17:01.056Z,945.5
2022-11-09T00:18:07.233Z,945.5
2022-11-09T00:19:12.434Z,945.5
2022-11-09T00:20:18.592Z,945.5
2022-11-09T00:21:24.745Z,945.5
2022-11-09T00:22:30.917Z,945.5
2022-11-09T00:23:37.083Z,945.5
2022-11-09T00:24:43.267Z,945.5
2022-11-09T00:25:49.424Z,945.5
2022-11-09T00:26:55.598Z,945.6
2022-11-09T00:28:01.781Z,945.6
2022-11-09T00:29:07.945Z,945.5
2022-11-09T00:30:14.118Z,945.5
2022-11-09T00:31:20.310Z,945.6
2022-11-09T00:32:26.507Z,945.6
2022-11-09T00:33:31.631Z,945.6
2022-11-09T00:34:37.798Z,945.6
2022-11-09T00:35:43.955Z,945.6
2022-11-09T00:36:50.139Z,945.6
2022-11-09T00:37:56.308Z,945.6
2022-11-09T00:39:02.480Z,945.6
2022-11-09T00:40:08.652Z,945.6
2022-11-09T00:41:14.815Z,945.6
2022-11-09T00:42:20.983Z,945.6
2022-11-09T00:43:27.156Z,945.6
2022-11-09T00:44:33.327Z,945.6
2022-11-09T00:45:39.478Z,945.6
2022-11-09T00:46:45.655Z,945.6
2022-11-09T00:48:57.016Z,945.5
2022-11-09T00:50:03.190Z,945.6
2022-11-09T00:51:09.362Z,945.6
2022-11-09T00:52:15.503Z,945.6
2022-11-09T00:53:21.689Z,945.6
2022-11-09T00:54:27.926Z,945.6
2022-11-09T00:55:34.016Z,945.6
2022-11-09T00:56:40.193Z,945.6
2022-11-09T00:57:46.377Z,945.6
2022-11-09T00:58:52.536Z,945.7
2022-11-09T00:59:58.708Z,945.7
2022-11-09T01:01:04.881Z,945.7
2022-11-09T01:02:10.061Z,945.7
2022-11-09T01:03:16.227Z,945.7
2022-11-09T01:04:22.402Z,945.7
2022-11-09T01:05:28.562Z,945.7
2022-11-09T01:06:34.734Z,945.8
2022-11-09T01:07:40.913Z,945.8
2022-11-09T01:08:47.084Z,945.8
2022-11-09T01:09:53.256Z,945.8
2022-11-09T01:10:59.412Z,945.8
2022-11-09T01:12:05.572Z,945.8
2022-11-09T01:13:11.754Z,945.9
2022-11-09T01:14:17.920Z,945.9
2022-11-09T01:15:24.100Z,945.9
2022-11-09T01:16:29.292Z,946
2022-11-09T01:17:35.443Z,946
2022-11-09T01:18:41.618Z,946
2022-11-09T01:19:47.787Z,946.1
2022-11-09T01:20:53.972Z,946
2022-11-09T01:22:00.126Z,946
2022-11-09T01:23:06.298Z,946.1
2022-11-09T01:24:12.463Z,946
2022-11-09T01:25:18.639Z,946
2022-11-09T01:26:24.806Z,946
2022-11-09T01:27:30.981Z,946
2022-11-09T01:28:37.144Z,946
2022-11-09T01:29:43.330Z,946
2022-11-09T01:30:48.503Z,946.1
2022-11-09T01:31:54.681Z,946.1
2022-11-09T01:33:00.834Z,946.1
2022-11-09T01:34:07.022Z,946.1
2022-11-09T01:35:13.176Z,946.2
2022-11-09T01:36:19.344Z,946.2
2022-11-09T01:37:25.527Z,946.2
2022-11-09T01:38:31.682Z,946.2
2022-11-09T01:39:37.859Z,946.2
2022-11-09T01:40:44.031Z,946.1
2022-11-09T01:41:50.207Z,946.1
2022-11-09T01:42:56.362Z,946.1
2022-11-09T01:44:02.559Z,946.1
2022-11-09T01:45:07.748Z,946.1
2022-11-09T01:46:13.909Z,946.1
2022-11-09T01:47:20.062Z,946.1
2022-11-09T01:48:26.242Z,946.1
2022-11-09T01:49:32.399Z,946.1
2022-11-09T01:50:38.582Z,946.1
2022-11-09T01:51:44.755Z,946.1
2022-11-09T01:52:50.916Z,946.1
2022-11-09T01:53:57.076Z,946.1
2022-11-09T01:55:03.243Z,946.1
2022-11-09T01:56:09.428Z,946.1
2022-11-09T01:57:15.600Z,946
2022-11-09T01:58:21.776Z,946.1
2022-11-09T01:59:26.945Z,946.1
2022-11-09T02:00:33.128Z,946.1
2022-11-09T02:01:39.299Z,946.1
2022-11-09T02:02:45.454Z,946.1
2022-11-09T02:03:51.627Z,946.2
2022-11-09T02:04:57.781Z,946.2
2022-11-09T02:06:03.964Z,946.2
2022-11-09T02:07:10.145Z,946.2
2022-11-09T02:08:16.293Z,946.1
2022-11-09T02:09:22.478Z,946.2
2022-11-09T02:10:28.633Z,946.2
2022-11-09T02:11:34.826Z,946.2
2022-11-09T02:12:40.971Z,946.2
2022-11-09T02:13:46.161Z,946.2
2022-11-09T02:14:52.330Z,946.2
2022-11-09T02:15:58.501Z,946.1
2022-11-09T02:17:04.678Z,946.2
2022-11-09T02:18:10.833Z,946.2
2022-11-09T02:19:17.013Z,946.2
2022-11-09T02:20:23.182Z,946.2
2022-11-09T02:21:29.358Z,946.2
2022-11-09T02:22:35.531Z,946.2
2022-11-09T02:23:41.681Z,946.1
2022-11-09T02:24:47.852Z,946.1
2022-11-09T02:25:54.053Z,946.1
2022-11-09T02:27:00.201Z,946.2
2022-11-09T02:28:05.383Z,946.2
2022-11-09T02:29:11.566Z,946.1
2022-11-09T02:30:17.724Z,946.1
2022-11-09T02:31:23.898Z,946.1
2022-11-09T02:32:30.077Z,946.1
2022-11-09T02:33:36.230Z,946.1
2022-11-09T02:34:41.429Z,946.1
2022-11-09T02:35:47.609Z,946.1
2022-11-09T02:36:53.779Z,946.1
2022-11-09T02:37:59.929Z,946.1
2022-11-09T02:39:06.107Z,946.1
2022-11-09T02:40:12.305Z,946.1
2022-11-09T02:41:18.438Z,946.1
2022-11-09T02:42:24.601Z,946.1
2022-11-09T02:43:30.780Z,946.1
2022-11-09T02:44:36.948Z,946.1
2022-11-09T02:45:43.116Z,946.1
2022-11-09T02:46:49.299Z,946.1
2022-11-09T02:47:55.475Z,946.1
2022-11-09T02:49:00.650Z,946.1
2022-11-09T02:50:06.856Z,946.1
2022-11-09T02:51:12.981Z,946.2
2022-11-09T02:52:19.154Z,946.2
2022-11-09T02:53:25.323Z,946.1
2022-11-09T02:54:31.485Z,946.2
2022-11-09T02:55:37.675Z,946.2
2022-11-09T02:56:43.829Z,946.1
2022-11-09T02:57:50.010Z,946.1
2022-11-09T02:58:56.175Z,946.1
2022-11-09T03:00:02.350Z,946.1
2022-11-09T03:01:08.521Z,946.1
2022-11-09T03:02:14.698Z,946.1
2022-11-09T03:03:19.875Z,946.1
2022-11-09T03:04:26.055Z,946.2
2022-11-09T03:05:32.219Z,946.1
2022-11-09T03:06:38.383Z,946.1
2022-11-09T03:07:44.542Z,946.2
2022-11-09T03:08:50.716Z,946.2
2022-11-09T03:09:56.873Z,946.1
2022-11-09T03:11:03.065Z,946.1
2022-11-09T03:12:09.232Z,946.2
2022-11-09T03:13:15.383Z,946.3
2022-11-09T03:14:21.578Z,946.3
2022-11-09T03:16:33.901Z,946.3
2022-11-09T03:17:39.078Z,946.3
2022-11-09T03:18:45.269Z,946.4
2022-11-09T03:19:51.421Z,946.4
2022-11-09T03:20:57.604Z,946.4
2022-11-09T03:22:03.774Z,946.4
2022-11-09T03:23:09.924Z,946.5
2022-11-09T03:24:16.103Z,946.5
2022-11-09T03:25:22.285Z,946.5
2022-11-09T03:26:28.441Z,946.6
2022-11-09T03:27:34.615Z,946.6
2022-11-09T03:28:40.787Z,946.5
2022-11-09T03:29:46.955Z,946.5
2022-11-09T03:30:53.114Z,946.6
2022-11-09T03:31:58.322Z,946.6
2022-11-09T03:33:04.490Z,946.6
2022-11-09T03:34:10.649Z,946.6
2022-11-09T03:35:16.825Z,946.6
2022-11-09T03:36:22.991Z,946.6
2022-11-09T03:37:29.164Z,946.6
2022-11-09T03:38:35.317Z,946.6
2022-11-09T03:39:41.494Z,946.6
2022-11-09T03:40:47.663Z,946.7
2022-11-09T03:41:53.831Z,946.7
2022-11-09T03:43:00.032Z,946.7
2022-11-09T03:44:06.197Z,946.7
2022-11-09T03:45:12.353Z,946.7
2022-11-09T03:46:17.529Z,946.8
2022-11-09T03:47:23.702Z,946.7
2022-11-09T03:48:29.870Z,946.7
2022-11-09T03:49:36.029Z,946.7
2022-11-09T03:50:42.212Z,946.7
2022-11-09T03:51:48.372Z,946.6
2022-11-09T03:52:54.559Z,946.6
2022-11-09T03:54:00.721Z,946.6
2022-11-09T03:55:06.929Z,946.6
2022-11-09T03:56:13.068Z,946.6
2022-11-09T03:57:19.225Z,946.6
2022-11-09T03:58:25.394Z,946.6
2022-11-09T03:59:31.575Z,946.6
2022-11-09T04:00:36.757Z,946.6
2022-11-09T04:01:42.911Z,946.5
2022-11-09T04:02:49.103Z,946.6
2022-11-09T04:03:55.264Z,946.6
2022-11-09T04:05:01.434Z,946.6
2022-11-09T04:06:07.603Z,946.6
2022-11-09T04:07:13.773Z,946.6
2022-11-09T04:08:19.938Z,946.6
2022-11-09T04:09:26.119Z,946.5
2022-11-09T04:10:32.270Z,946.6
2022-11-09T04:11:38.453Z,946.5
2022-11-09T04:12:44.619Z,946.5
2022-11-09T04:13:50.780Z,946.5
2022-11-09T04:14:55.965Z,946.5
2022-11-09T04:16:02.148Z,946.5
2022-11-09T04:17:08.318Z,946.5
2022-11-09T04:18:14.476Z,946.5
2022-11-09T04:19:20.643Z,946.5
2022-11-09T04:20:26.814Z,946.5
2022-11-09T04:21:32.993Z,946.5
2022-11-09T04:22:39.175Z,946.5
2022-11-09T04:23:45.341Z,946.5
2022-11-09T04:24:51.505Z,946.5
2022-11-09T04:25:57.669Z,946.5
2022-11-09T04:27:03.841Z,946.5
2022-11-09T04:28:10.008Z,946.5
2022-11-09T04:29:15.184Z,946.5
2022-11-09T04:30:21.363Z,946.4
2022-11-09T04:31:27.541Z,946.4
2022-11-09T04:32:33.713Z,946.4
2022-11-09T04:33:39.871Z,946.4
2022-11-09T04:34:46.048Z,946.4
2022-11-09T04:35:52.209Z,946.4
2022-11-09T04:36:58.375Z,946.4
2022-11-09T04:38:04.553Z,946.4
2022-11-09T04:39:10.721Z,946.4
2022-11-09T04:40:16.894Z,946.3
2022-11-09T04:41:23.056Z,946.3
2022-11-09T04:42:29.247Z,946.3
2022-11-09T04:43:34.428Z,946.3
2022-11-09T04:44:40.601Z,946.2
2022-11-09T04:45:46.750Z,946.2
2022-11-09T04:46:52.943Z,946.2
2022-11-09T04:47:59.097Z,946.2
2022-11-09T04:49:05.298Z,946.2
2022-11-09T04:50:11.451Z,946.2
2022-11-09T04:51:17.611Z,946.1
2022-11-09T04:52:23.807Z,946.1
2022-11-09T04:53:29.939Z,946.1
2022-11-09T04:54:36.128Z,946.1
2022-11-09T04:55:42.308Z,946.2
2022-11-09T04:56:48.448Z,946.2
2022-11-09T04:57:53.643Z,946.1
2022-11-09T04:58:59.803Z,946.1
2022-11-09T05:00:05.968Z,946.1
2022-11-09T05:01:12.157Z,946.1
2022-11-09T05:03:24.486Z,946.1
2022-11-09T05:04:30.649Z,946.1
2022-11-09T05:05:36.824Z,946.1
2022-11-09T05:06:42.999Z,946.1
2022-11-09T05:07:49.158Z,946.1
2022-11-09T05:08:55.324Z,946.1
2022-11-09T05:10:01.509Z,946.1
2022-11-09T05:11:07.692Z,946.1
2022-11-09T05:12:12.865Z,946.1
2022-11-09T05:13:19.030Z,946.1
2022-11-09T05:14:25.204Z,946.2
2022-11-09T05:15:31.364Z,946.2
2022-11-09T05:16:37.535Z,946.2
2022-11-09T05:17:43.715Z,946.2
2022-11-09T05:18:49.868Z,946.2
2022-11-09T05:19:56.055Z,946.2
2022-11-09T05:21:02.219Z,946.2
2022-11-09T05:22:08.377Z,946.2
2022-11-09T05:23:14.555Z,946.2
2022-11-09T05:24:20.724Z,946.2
2022-11-09T05:25:26.907Z,946.2
2022-11-09T05:26:32.088Z,946.2
2022-11-09T05:27:38.255Z,946.2
2022-11-09T05:28:44.417Z,946.1
2022-11-09T05:29:50.596Z,946.1
2022-11-09T05:30:56.759Z,946.1
2022-11-09T05:32:02.937Z,946.1
2022-11-09T05:33:09.090Z,946.2
2022-11-09T05:34:15.267Z,946.2
2022-11-09T05:35:21.427Z,946.3
2022-11-09T05:36:27.616Z,946.3
2022-11-09T05:37:33.786Z,946.3
2022-11-09T05:38:39.946Z,946.3
2022-11-09T05:39:46.138Z,946.3
2022-11-09T05:40:51.307Z,946.3
2022-11-09T05:41:57.464Z,946.3
2022-11-09T05:43:03.648Z,946.3
2022-11-09T05:44:09.819Z,946.3
2022-11-09T05:45:15.981Z,946.3
2022-11-09T05:46:22.148Z,946.3
2022-11-09T05:47:28.319Z,946.3
2022-11-09T05:48:34.492Z,946.2
2022-11-09T05:49:40.654Z,946.2
2022-11-09T05:50:46.834Z,946.2
2022-11-09T05:51:52.994Z,946.2
2022-11-09T05:52:59.154Z,946.2
2022-11-09T05:54:05.339Z,946.2
2022-11-09T05:55:10.524Z,946.2
2022-11-09T05:56:16.688Z,946.3
2022-11-09T05:57:22.868Z,946.3
2022-11-09T05:58:29.033Z,946.4
2022-11-09T05:59:35.203Z,946.5
2022-11-09T06:00:41.368Z,946.5
2022-11-09T06:01:47.555Z,946.5
2022-11-09T06:02:53.731Z,946.5
2022-11-09T06:03:59.908Z,946.5
2022-11-09T06:05:06.052Z,946.5
2022-11-09T06:06:12.212Z,946.6
2022-11-09T06:07:18.403Z,946.6
2022-11-09T06:08:24.559Z,946.6
2022-11-09T06:09:29.747Z,946.6
2022-11-09T06:10:35.929Z,946.6
2022-11-09T06:11:42.082Z,946.6
2022-11-09T06:12:48.252Z,946.6
2022-11-09T06:13:54.447Z,946.6
2022-11-09T06:15:00.582Z,946.7
2022-11-09T06:16:05.803Z,946.6
2022-11-09T06:17:11.955Z,946.6
2022-11-09T06:18:18.124Z,946.6
2022-11-09T06:19:24.307Z,946.6
2022-11-09T06:20:30.460Z,946.7
2022-11-09T06:21:36.638Z,946.7
2022-11-09T06:22:42.817Z,946.7
2022-11-09T06:23:48.982Z,946.7
2022-11-09T06:24:55.132Z,946.7
2022-11-09T06:26:01.321Z,946.7
2022-11-09T06:27:07.484Z,946.8
2022-11-09T06:28:13.655Z,946.8
2022-11-09T06:29:19.821Z,946.9
2022-11-09T06:30:25.008Z,946.9
2022-11-09T06:31:31.180Z,946.9
2022-11-09T06:32:37.344Z,946.9
2022-11-09T06:33:43.514Z,946.9
2022-11-09T06:34:49.691Z,946.9
2022-11-09T06:35:55.848Z,946.9
2022-11-09T06:37:02.018Z,946.9
2022-11-09T06:38:08.188Z,946.9
2022-11-09T06:39:14.369Z,946.9
2022-11-09T06:40:20.535Z,946.9
2022-11-09T06:41:26.756Z,946.9
2022-11-09T06:42:32.880Z,946.9
2022-11-09T06:43:39.059Z,946.9
2022-11-09T06:44:44.235Z,947
2022-11-09T06:45:50.411Z,947
2022-11-09T06:46:56.568Z,947.1
2022-11-09T06:48:02.747Z,947.1
2022-11-09T06:49:08.929Z,947.1
2022-11-09T06:50:15.099Z,947.1
2022-11-09T06:51:21.257Z,947
2022-11-09T06:52:27.425Z,947
2022-11-09T06:53:33.588Z,947.1
2022-11-09T06:54:39.752Z,947.1
2022-11-09T06:55:45.926Z,947.1
2022-11-09T06:56:52.105Z,947.1
2022-11-09T06:57:58.260Z,947.2
2022-11-09T06:59:03.460Z,947.2
2022-11-09T07:00:09.663Z,947.2
2022-11-09T07:01:15.782Z,947.2
2022-11-09T07:02:21.955Z,947.2
2022-11-09T07:03:28.133Z,947.2
2022-11-09T07:04:34.300Z,947.2
2022-11-09T07:05:40.459Z,947.2
2022-11-09T07:06:46.631Z,947.2
2022-11-09T07:07:52.805Z,947.2
2022-11-09T07:08:58.995Z,947.3
2022-11-09T07:10:05.149Z,947.2
2022-11-09T07:11:11.314Z,947.3
2022-11-09T07:12:17.482Z,947.3
2022-11-09T07:13:22.667Z,947.3
2022-11-09T07:14:28.837Z,947.3
2022-11-09T07:15:35.021Z,947.4
2022-11-09T07:16:41.180Z,947.4
2022-11-09T07:17:47.347Z,947.4
2022-11-09T07:18:53.522Z,947.4
2022-11-09T07:19:59.695Z,947.4
2022-11-09T07:21:05.866Z,947.4
2022-11-09T07:22:12.030Z,947.4
2022-11-09T07:23:18.195Z,947.4
2022-11-09T07:24:24.404Z,947.4
2022-11-09T07:25:30.549Z,947.4
2022-11-09T07:26:36.722Z,947.4
2022-11-09T07:27:41.884Z,947.4
2022-11-09T07:28:48.067Z,947.4
2022-11-09T07:29:54.221Z,947.4
2022-11-09T07:31:00.404Z,947.4
2022-11-09T07:32:06.580Z,947.3
2022-11-09T07:33:12.754Z,947.4
2022-11-09T07:34:18.915Z,947.4
2022-11-09T07:35:25.094Z,947.4
2022-11-09T07:36:31.309Z,947.4
2022-11-09T07:37:37.432Z,947.4
2022-11-09T07:38:43.579Z,947.4
2022-11-09T07:39:49.780Z,947.4
2022-11-09T07:40:55.929Z,947.4
2022-11-09T07:42:01.110Z,947.4
2022-11-09T07:43:07.283Z,947.4
2022-11-09T07:44:13.469Z,947.4
2022-11-09T07:45:19.624Z,947.4
2022-11-09T07:46:25.802Z,947.4
2022-11-09T07:47:31.980Z,947.4
2022-11-09T07:48:38.136Z,947.4
2022-11-09T07:49:44.315Z,947.4
2022-11-09T07:50:50.485Z,947.4
2022-11-09T07:51:56.663Z,947.5
2022-11-09T07:53:02.820Z,947.4
2022-11-09T07:54:09.007Z,947.4
2022-11-09T07:55:15.160Z,947.4
2022-11-09T07:56:20.357Z,947.4
2022-11-09T07:57:26.539Z,947.5
2022-11-09T07:58:32.699Z,947.5
2022-11-09T07:59:38.878Z,947.5
2022-11-09T08:00:45.034Z,947.5
2022-11-09T08:01:51.192Z,947.5
2022-11-09T08:02:57.361Z,947.5
2022-11-09T08:04:03.535Z,947.5
2022-11-09T08:05:09.700Z,947.6
2022-11-09T08:06:15.870Z,947.6
2022-11-09T08:07:22.052Z,947.6
2022-11-09T08:08:28.213Z,947.6
2022-11-09T08:09:34.384Z,947.5
2022-11-09T08:10:39.558Z,947.5
2022-11-09T08:11:45.731Z,947.5
2022-11-09T08:12:51.913Z,947.5
2022-11-09T08:13:58.083Z,947.5
2022-11-09T08:15:04.237Z,947.6
2022-11-09T08:16:10.404Z,947.6
2022-11-09T08:17:16.628Z,947.6
2022-11-09T08:18:22.757Z,947.6
2022-11-09T08:19:28.919Z,947.6
2022-11-09T08:20:35.094Z,947.6
2022-11-09T08:21:41.270Z,947.6
2022-11-09T08:22:47.435Z,947.6
2022-11-09T08:23:53.609Z,947.6
2022-11-09T08:24:58.797Z,947.6
2022-11-09T08:26:04.951Z,947.6
2022-11-09T08:27:11.122Z,947.6
2022-11-09T08:28:17.288Z,947.6
2022-11-09T08:29:23.474Z,947.6
2022-11-09T08:30:29.642Z,947.5
2022-11-09T08:31:35.812Z,947.5
2022-11-09T08:32:41.966Z,947.5
2022-11-09T08:33:48.157Z,947.5
2022-11-09T08:34:54.306Z,947.5
2022-11-09T08:36:00.486Z,947.6
2022-11-09T08:37:06.656Z,947.6
2022-11-09T08:38:12.815Z,947.6
2022-11-09T08:39:18.011Z,947.6
2022-11-09T08:40:24.173Z,947.6
2022-11-09T08:41:30.355Z,947.6
2022-11-09T08:42:36.525Z,947.6
2022-11-09T08:43:42.675Z,947.6
2022-11-09T08:44:48.854Z,947.6
2022-11-09T08:45:55.028Z,947.5
2022-11-09T08:47:01.202Z,947.5
2022-11-09T08:48:07.351Z,947.5
2022-11-09T08:49:13.522Z,947.5
2022-11-09T08:50:19.709Z,947.5
2022-11-09T08:51:25.870Z,947.5
2022-11-09T08:52:32.046Z,947.5
2022-11-09T08:53:37.247Z,947.6
2022-11-09T08:54:43.386Z,947.6
2022-11-09T08:55:49.564Z,947.6
2022-11-09T08:56:55.764Z,947.6
2022-11-09T08:58:01.910Z,947.6
2022-11-09T08:59:08.065Z,947.6
2022-11-09T09:00:14.234Z,947.6
2022-11-09T09:01:20.418Z,947.6
2022-11-09T09:02:26.573Z,947.6
2022-11-09T09:03:32.749Z,947.6
2022-11-09T09:04:38.914Z,947.6
2022-11-09T09:05:45.075Z,947.6
2022-11-09T09:06:51.271Z,947.7
2022-11-09T09:07:56.457Z,947.6
2022-11-09T09:09:02.610Z,947.6
2022-11-09T09:10:08.796Z,947.6
2022-11-09T09:11:14.993Z,947.6
2022-11-09T09:12:21.124Z,947.6
2022-11-09T09:13:27.294Z,947.6
2022-11-09T09:14:33.474Z,947.6
2022-11-09T09:15:39.627Z,947.6
2022-11-09T09:16:45.791Z,947.6
2022-11-09T09:17:51.980Z,947.6
2022-11-09T09:18:58.137Z,947.7
2022-11-09T09:20:04.300Z,947.7
2022-11-09T09:21:10.504Z,947.7
2022-11-09T09:22:15.661Z,947.7
2022-11-09T09:23:21.838Z,947.7
2022-11-09T09:24:28.012Z,947.7
2022-11-09T09:25:34.167Z,947.7
2022-11-09T09:26:40.347Z,947.7
2022-11-09T09:27:46.522Z,947.7
2022-11-09T09:28:52.674Z,947.7
2022-11-09T09:29:58.860Z,947.7
2022-11-09T09:31:05.019Z,947.7
2022-11-09T09:32:11.200Z,947.6
2022-11-09T09:33:17.367Z,947.7
2022-11-09T09:34:23.535Z,947.7
2022-11-09T09:35:29.714Z,947.7
2022-11-09T09:36:34.895Z,947.7
2022-11-09T09:37:41.055Z,947.7
2022-11-09T09:38:47.227Z,947.7
2022-11-09T09:39:53.393Z,947.7
2022-11-09T09:40:59.554Z,947.7
2022-11-09T09:42:05.722Z,947.7
2022-11-09T09:43:11.904Z,947.7
2022-11-09T09:44:18.063Z,947.7
2022-11-09T09:45:24.229Z,947.7
2022-11-09T09:46:30.407Z,947.7
2022-11-09T09:47:36.579Z,947.8
2022-11-09T09:48:42.774Z,947.8
2022-11-09T09:49:48.921Z,947.8
2022-11-09T09:50:54.106Z,947.8
2022-11-09T09:52:00.266Z,947.8
2022-11-09T09:53:06.440Z,947.8
2022-11-09T09:54:12.621Z,947.8
2022-11-09T09:55:18.782Z,947.8
2022-11-09T09:56:24.977Z,947.8
2022-11-09T09:57:30.138Z,947.8
2022-11-09T09:58:36.306Z,947.8
2022-11-09T09:59:42.486Z,947.8
2022-11-09T10:00:48.662Z,947.8
2022-11-09T10:01:54.814Z,947.9
2022-11-09T10:03:00.989Z,947.9
2022-11-09T10:04:07.172Z,947.9
2022-11-09T10:05:13.339Z,947.9
2022-11-09T10:06:19.498Z,947.9
2022-11-09T10:07:25.677Z,947.9
2022-11-09T10:08:31.838Z,947.9
2022-11-09T10:09:38.016Z,947.9
2022-11-09T10:10:44.177Z,947.8
2022-11-09T10:11:49.359Z,947.8
2022-11-09T10:12:55.530Z,947.9
2022-11-09T10:14:01.706Z,947.9
2022-11-09T10:15:07.882Z,947.9
2022-11-09T10:16:14.041Z,947.9
2022-11-09T10:17:20.209Z,947.9
2022-11-09T10:18:26.389Z,947.9
2022-11-09T10:19:32.567Z,948
2022-11-09T10:20:38.726Z,948
2022-11-09T10:21:44.894Z,947.9
2022-11-09T10:22:51.055Z,947.9
2022-11-09T10:23:57.228Z,948
2022-11-09T10:25:03.403Z,948
2022-11-09T10:26:08.584Z,947.9
2022-11-09T10:27:14.756Z,947.9
2022-11-09T10:28:20.942Z,947.9
2022-11-09T10:29:27.096Z,947.9
2022-11-09T10:30:33.261Z,947.9
2022-11-09T10:31:39.437Z,947.9
2022-11-09T10:32:45.602Z,947.9
2022-11-09T10:33:51.763Z,947.9
2022-11-09T10:34:57.934Z,947.9
2022-11-09T10:36:04.105Z,947.8
2022-11-09T10:37:10.271Z,947.8
2022-11-09T10:38:16.445Z,947.8
2022-11-09T10:39:22.623Z,947.8
2022-11-09T10:40:27.812Z,947.8
2022-11-09T10:41:33.984Z,947.8
2022-11-09T10:42:40.140Z,947.8
2022-11-09T10:43:46.320Z,947.8
2022-11-09T10:44:52.476Z,947.8
2022-11-09T10:45:58.657Z,947.7
2022-11-09T10:47:04.856Z,947.8
2022-11-09T10:48:10.987Z,947.8
2022-11-09T10:49:17.159Z,947.7
2022-11-09T10:50:23.326Z,947.7
2022-11-09T10:51:29.502Z,947.7
2022-11-09T10:52:35.664Z,947.7
2022-11-09T10:53:41.837Z,947.7
2022-11-09T10:54:47.029Z,947.7
2022-11-09T10:55:53.182Z,947.7
2022-11-09T10:56:59.372Z,947.7
2022-11-09T10:58:05.520Z,947.7
2022-11-09T10:59:11.714Z,947.7
2022-11-09T11:00:17.877Z,947.7
2022-11-09T11:01:24.050Z,947.7
2022-11-09T11:02:30.205Z,947.7
2022-11-09T11:03:36.391Z,947.7
2022-11-09T11:04:42.552Z,947.7
2022-11-09T11:05:48.733Z,947.7
2022-11-09T11:06:54.887Z,947.7
2022-11-09T11:08:01.068Z,947.7
2022-11-09T11:09:06.235Z,947.7
2022-11-09T11:10:12.425Z,947.7
2022-11-09T11:11:18.592Z,947.7
2022-11-09T11:12:24.751Z,947.7
2022-11-09T11:13:30.916Z,947.7
2022-11-09T11:14:37.104Z,947.7
2022-11-09T11:15:43.259Z,947.6
2022-11-09T11:16:49.420Z,947.6
2022-11-09T11:17:55.608Z,947.6
2022-11-09T11:19:01.778Z,947.6
2022-11-09T11:20:07.951Z,947.6
2022-11-09T11:21:14.113Z,947.6
2022-11-09T11:22:20.289Z,947.6
2022-11-09T11:23:25.448Z,947.6
2022-11-09T11:24:31.641Z,947.5
2022-11-09T11:25:37.802Z,947.5
2022-11-09T11:26:43.971Z,947.5
2022-11-09T11:27:50.131Z,947.5
2022-11-09T11:28:56.310Z,947.5
2022-11-09T11:30:02.474Z,947.5
2022-11-09T11:31:08.650Z,947.5
2022-11-09T11:32:14.820Z,947.5
2022-11-09T11:33:20.998Z,947.5
2022-11-09T11:34:27.161Z,947.5
2022-11-09T11:35:33.337Z,947.5
2022-11-09T11:36:39.491Z,947.5
2022-11-09T11:37:44.693Z,947.5
2022-11-09T11:38:50.864Z,947.5
2022-11-09T11:39:57.028Z,947.5
2022-11-09T11:41:03.190Z,947.5
2022-11-09T11:42:09.357Z,947.5
2022-11-09T11:43:15.529Z,947.4
2022-11-09T11:44:21.708Z,947.4
2022-11-09T11:45:27.926Z,947.4
2022-11-09T11:46:34.056Z,947.4
2022-11-09T11:47:40.197Z,947.4
2022-11-09T11:48:46.383Z,947.4
2022-11-09T11:49:52.545Z,947.4
2022-11-09T11:50:58.734Z,947.4
2022-11-09T11:52:03.901Z,947.4
2022-11-09T11:53:10.077Z,947.3
2022-11-09T11:54:16.235Z,947.3
2022-11-09T11:55:22.416Z,947.3
2022-11-09T11:56:28.585Z,947.3
2022-11-09T11:57:34.758Z,947.3
2022-11-09T11:58:40.927Z,947.3
2022-11-09T11:59:47.098Z,947.3
2022-11-09T12:00:53.264Z,947.3
2022-11-09T12:01:59.443Z,947.3
2022-11-09T12:03:05.589Z,947.3
2022-11-09T12:04:11.789Z,947.3
2022-11-09T12:05:17.937Z,947.3
2022-11-09T12:06:23.129Z,947.3
2022-11-09T12:07:29.299Z,947.3
2022-11-09T12:08:35.467Z,947.3
2022-11-09T12:09:41.666Z,947.3
2022-11-09T12:10:47.808Z,947.3
2022-11-09T12:11:53.986Z,947.3
2022-11-09T12:13:00.164Z,947.3
2022-11-09T12:14:06.318Z,947.3
2022-11-09T12:15:12.483Z,947.3
2022-11-09T12:16:18.664Z,947.3
2022-11-09T12:17:24.825Z,947.3
2022-11-09T12:18:30.999Z,947.3
2022-11-09T12:19:37.204Z,947.3
2022-11-09T12:20:42.348Z,947.3
2022-11-09T12:21:48.518Z,947.3
2022-11-09T12:22:54.695Z,947.3
2022-11-09T12:24:00.861Z,947.3
2022-11-09T12:25:07.035Z,947.3
2022-11-09T12:26:13.203Z,947.2
2022-11-09T12:27:19.368Z,947.3
2022-11-09T12:28:25.549Z,947.3
2022-11-09T12:29:31.716Z,947.3
2022-11-09T12:30:37.887Z,947.3
2022-11-09T12:31:44.056Z,947.2
2022-11-09T12:32:50.223Z,947.2
2022-11-09T12:33:56.391Z,947.3
2022-11-09T12:35:01.577Z,947.3
2022-11-09T12:36:07.736Z,947.3
2022-11-09T12:37:13.909Z,947.3
2022-11-09T12:38:20.068Z,947.3
2022-11-09T12:39:26.256Z,947.3
2022-11-09T12:40:32.415Z,947.3
2022-11-09T12:41:38.600Z,947.3
2022-11-09T12:42:44.749Z,947.3
2022-11-09T12:43:50.936Z,947.3
2022-11-09T12:44:57.096Z,947.3
2022-11-09T12:46:03.269Z,947.3
2022-11-09T12:47:09.428Z,947.3
2022-11-09T12:48:15.608Z,947.3
2022-11-09T12:49:20.794Z,947.2
2022-11-09T12:50:27.015Z,947.2
2022-11-09T12:51:33.124Z,947.2
2022-11-09T12:52:39.300Z,947.2
2022-11-09T12:53:45.480Z,947.3
2022-11-09T12:54:51.647Z,947.2
2022-11-09T12:55:57.808Z,947.2
2022-11-09T12:57:03.971Z,947.2
2022-11-09T12:58:10.144Z,947.2
2022-11-09T12:59:16.320Z,947.2
2022-11-09T13:00:22.515Z,947.2
2022-11-09T13:01:28.659Z,947.2
2022-11-09T13:02:34.830Z,947.2
2022-11-09T13:03:40.029Z,947.2
2022-11-09T13:04:46.191Z,947.2
2022-11-09T13:05:52.340Z,947.2
2022-11-09T13:06:58.534Z,947.3
2022-11-09T13:08:04.706Z,947.3
2022-11-09T13:09:10.861Z,947.3
2022-11-09T13:10:17.020Z,947.2
2022-11-09T13:11:23.203Z,947.2
2022-11-09T13:12:29.377Z,947.2
2022-11-09T13:13:35.540Z,947.3
2022-11-09T13:14:41.706Z,947.3
2022-11-09T13:15:47.871Z,947.2
2022-11-09T13:16:54.041Z,947.2
2022-11-09T13:17:59.213Z,947.2
2022-11-09T13:19:05.397Z,947.3
2022-11-09T13:20:11.574Z,947.2
2022-11-09T13:21:17.748Z,947.2
2022-11-09T13:22:23.912Z,947.2
2022-11-09T13:23:30.089Z,947.2
2022-11-09T13:24:36.283Z,947.3
2022-11-09T13:25:42.467Z,947.3
2022-11-09T13:26:48.651Z,947.3
2022-11-09T13:27:54.841Z,947.3
2022-11-09T13:29:00.986Z,947.3
2022-11-09T13:30:07.107Z,947.3
2022-11-09T13:31:13.297Z,947.3
2022-11-09T13:32:18.457Z,947.3
2022-11-09T13:33:24.748Z,947.3
2022-11-09T13:34:30.814Z,947.3
2022-11-09T13:35:37.063Z,947.3
2022-11-09T13:36:43.245Z,947.3
2022-11-09T13:37:49.565Z,947.4
2022-11-09T13:38:54.589Z,947.4
2022-11-09T13:40:00.887Z,947.4
2022-11-09T13:41:07.012Z,947.4
2022-11-09T13:42:13.128Z,947.4
2022-11-09T13:43:19.295Z,947.4
2022-11-09T13:44:25.593Z,947.4
2022-11-09T13:45:31.729Z,947.4
2022-11-09T13:46:37.863Z,947.4
2022-11-09T13:47:44.036Z,947.4
2022-11-09T13:48:50.193Z,947.5
2022-11-09T13:49:56.315Z,947.4
2022-11-09T13:51:02.599Z,947.4
2022-11-09T13:52:08.690Z,947.5
2022-11-09T13:53:13.862Z,947.5
2022-11-09T13:54:20.089Z,947.6
2022-11-09T13:55:26.182Z,947.6
2022-11-09T13:56:32.496Z,947.6
2022-11-09T13:57:38.597Z,947.6
2022-11-09T13:58:44.565Z,947.6
2022-11-09T13:59:50.732Z,947.6
2022-11-09T14:00:57.048Z,947.6
2022-11-09T14:02:03.161Z,947.7
2022-11-09T14:03:09.379Z,947.6
2022-11-09T14:04:15.584Z,947.7
2022-11-09T14:05:21.794Z,947.6
2022-11-09T14:06:27.910Z,947.7
2022-11-09T14:07:33.188Z,947.7
2022-11-09T14:08:39.303Z,947.7
2022-11-09T14:09:45.465Z,947.7
2022-11-09T14:10:51.447Z,947.7
2022-11-09T14:11:57.861Z,947.7
2022-11-09T14:13:03.952Z,947.7
2022-11-09T14:14:09.942Z,947.7
2022-11-09T14:15:16.301Z,947.7